createdAt,value
2018-10-12T00:01:07.508Z,11.07
2018-10-12T00:03:35.904Z,10.80
2018-10-12T00:06:04.251Z,11.13
2018-10-12T00:08:32.654Z,10.83
2018-10-12T00:11:01.380Z,12.03
2018-10-12T00:13:29.625Z,10.60
2018-10-12T00:15:57.970Z,11.40
2018-10-12T00:18:26.549Z,11.67
2018-10-12T00:20:55.328Z,10.63
2018-10-12T00:23:23.987Z,9.98
2018-10-12T00:25:52.202Z,10.35
2018-10-12T00:28:20.399Z,10.40
2018-10-12T00:30:48.657Z,8.73
2018-10-12T00:33:16.848Z,9.80
2018-10-12T00:35:45.327Z,9.38
2018-10-12T00:38:13.673Z,9.07
2018-10-12T00:40:42.132Z,9.85
2018-10-12T00:43:10.460Z,9.90
2018-10-12T00:45:38.760Z,10.47
2018-10-12T00:48:07.344Z,9.73
2018-10-12T00:50:35.649Z,10.20
2018-10-12T00:53:04.179Z,11.38
2018-10-12T00:55:34.099Z,10.07
2018-10-12T00:58:02.473Z,9.38
2018-10-12T01:00:30.816Z,10.40
2018-10-12T01:02:59.106Z,9.33
2018-10-12T01:05:27.900Z,10.50
2018-10-12T01:07:56.326Z,9.87
2018-10-12T01:10:24.775Z,9.83
2018-10-12T01:12:53.252Z,9.95
2018-10-12T01:15:21.707Z,10.75
2018-10-12T01:17:50.028Z,10.28
2018-10-12T01:20:18.432Z,9.97
2018-10-12T01:22:46.789Z,10.10
2018-10-12T01:25:15.166Z,10.90
2018-10-12T01:27:43.611Z,9.63
2018-10-12T01:30:12.254Z,11.40
2018-10-12T01:32:46.336Z,10.27
2018-10-12T01:35:14.947Z,9.88
2018-10-12T01:37:43.338Z,10.20
2018-10-12T01:40:11.676Z,10.38
2018-10-12T01:42:39.997Z,10.20
2018-10-12T01:45:08.547Z,9.38
2018-10-12T01:47:37.082Z,9.95
2018-10-12T01:50:05.490Z,10.38
2018-10-12T01:52:33.827Z,10.13
2018-10-12T01:55:02.221Z,11.00
2018-10-12T01:57:30.908Z,11.50
2018-10-12T01:59:59.245Z,10.88
2018-10-12T02:02:27.528Z,10.32
2018-10-12T02:04:55.904Z,9.88
2018-10-12T02:07:24.331Z,9.78
2018-10-12T02:09:52.608Z,9.38
2018-10-12T02:12:20.924Z,10.35
2018-10-12T02:14:49.319Z,10.08
2018-10-12T02:17:18.429Z,9.50
2018-10-12T02:19:46.679Z,9.83
2018-10-12T02:22:14.988Z,10.43
2018-10-12T02:24:43.282Z,10.05
2018-10-12T02:27:11.680Z,9.43
2018-10-12T02:29:39.976Z,9.23
2018-10-12T02:32:08.297Z,9.45
2018-10-12T02:34:37.066Z,9.15
2018-10-12T02:37:05.761Z,10.13
2018-10-12T02:39:34.127Z,9.23
2018-10-12T02:42:02.666Z,10.00
2018-10-12T02:44:30.936Z,9.03
2018-10-12T02:46:59.447Z,9.70
2018-10-12T02:49:27.825Z,9.80
2018-10-12T02:51:56.101Z,9.38
2018-10-12T02:54:24.531Z,9.60
2018-10-12T02:56:52.800Z,9.40
2018-10-12T02:59:21.179Z,8.75
2018-10-12T03:01:49.547Z,8.78
2018-10-12T03:04:17.908Z,9.65
2018-10-12T03:06:46.620Z,9.35
2018-10-12T03:09:14.994Z,9.78
2018-10-12T03:11:43.387Z,8.53
2018-10-12T03:14:11.711Z,8.73
2018-10-12T03:19:28.312Z,9.20
2018-10-12T03:21:56.613Z,9.15
2018-10-12T03:24:25.028Z,9.40
2018-10-12T03:26:53.436Z,9.15
2018-10-12T03:29:21.735Z,8.88
2018-10-12T03:31:50.261Z,8.98
2018-10-12T03:34:18.947Z,9.45
2018-10-12T03:36:47.268Z,7.70
2018-10-12T03:39:15.614Z,8.85
2018-10-12T03:41:43.992Z,8.33
2018-10-12T03:44:12.277Z,9.18
2018-10-12T03:46:41.195Z,9.23
2018-10-12T03:49:09.681Z,8.98
2018-10-12T03:51:38.253Z,8.35
2018-10-12T03:54:06.663Z,9.08
2018-10-12T03:56:35.127Z,8.23
2018-10-12T03:59:03.668Z,8.63
2018-10-12T04:01:32.112Z,9.00
2018-10-12T04:04:00.453Z,8.48
2018-10-12T04:06:28.881Z,7.92
2018-10-12T04:08:57.363Z,7.55
2018-10-12T04:11:25.824Z,8.50
2018-10-12T04:13:54.084Z,7.92
2018-10-12T04:16:22.538Z,9.38
2018-10-12T04:18:50.875Z,8.50
2018-10-12T04:21:21.124Z,8.98
2018-10-12T04:23:49.583Z,8.20
2018-10-12T04:26:17.940Z,8.20
2018-10-12T04:28:46.260Z,8.03
2018-10-12T04:31:14.601Z,7.95
2018-10-12T04:33:43.378Z,7.97
2018-10-12T04:36:11.751Z,9.00
2018-10-12T04:38:55.988Z,7.62
2018-10-12T04:41:24.339Z,8.00
2018-10-12T04:43:58.279Z,8.38
2018-10-12T04:46:43.897Z,9.33
2018-10-12T04:49:14.962Z,8.60
2018-10-12T04:51:49.899Z,10.10
2018-10-12T04:54:18.725Z,9.03
2018-10-12T04:56:47.659Z,8.53
2018-10-12T04:59:16.184Z,8.68
2018-10-12T05:01:44.953Z,9.40
2018-10-12T05:04:13.460Z,9.00
2018-10-12T05:06:41.942Z,8.90
2018-10-12T05:09:11.360Z,9.18
2018-10-12T05:11:39.956Z,9.65
2018-10-12T05:14:09.064Z,8.20
2018-10-12T05:16:37.802Z,8.03
2018-10-12T05:19:11.212Z,8.30
2018-10-12T05:21:39.675Z,8.20
2018-10-12T05:24:08.157Z,8.75
2018-10-12T05:26:36.692Z,8.70
2018-10-12T05:29:05.414Z,7.50
2018-10-12T05:31:33.928Z,8.60
2018-10-12T05:34:02.491Z,9.33
2018-10-12T05:36:30.988Z,8.53
2018-10-12T05:39:00.671Z,9.23
2018-10-12T05:41:30.856Z,8.55
2018-10-12T05:44:06.672Z,8.73
2018-10-12T05:46:52.495Z,8.35
2018-10-12T05:49:38.577Z,8.35
2018-10-12T05:52:08.496Z,7.87
2018-10-12T05:54:48.816Z,9.10
2018-10-12T05:57:17.385Z,8.28
2018-10-12T05:59:46.408Z,8.83
2018-10-12T06:02:16.252Z,8.00
2018-10-12T06:04:44.880Z,7.45
2018-10-12T06:07:13.516Z,8.40
2018-10-12T06:09:42.385Z,8.18
2018-10-12T06:12:13.816Z,8.53
2018-10-12T06:14:42.756Z,8.53
2018-10-12T06:17:11.534Z,7.22
2018-10-12T06:19:39.994Z,8.33
2018-10-12T06:22:08.719Z,8.00
2018-10-12T06:24:37.303Z,7.67
2018-10-12T06:27:05.813Z,7.92
2018-10-12T06:29:34.093Z,7.20
2018-10-12T06:32:02.510Z,8.00
2018-10-12T06:34:30.811Z,7.65
2018-10-12T06:36:59.197Z,9.38
2018-10-12T06:39:27.620Z,7.95
2018-10-12T06:41:56.068Z,7.33
2018-10-12T06:44:24.584Z,7.30
2018-10-12T06:46:52.944Z,7.60
2018-10-12T06:49:21.187Z,7.30
2018-10-12T06:51:50.471Z,7.83
2018-10-12T06:54:18.805Z,7.97
2018-10-12T06:56:47.838Z,8.25
2018-10-12T06:59:16.317Z,7.90
2018-10-12T07:01:45.165Z,7.55
2018-10-12T07:04:13.649Z,8.05
2018-10-12T07:06:42.215Z,8.30
2018-10-12T07:09:12.003Z,7.87
2018-10-12T07:11:40.375Z,7.20
2018-10-12T07:14:09.377Z,7.55
2018-10-12T07:16:37.426Z,7.42
2018-10-12T07:19:05.864Z,7.53
2018-10-12T07:21:34.317Z,7.30
2018-10-12T07:24:03.453Z,7.90
2018-10-12T07:26:31.909Z,7.42
2018-10-12T07:29:00.527Z,8.30
2018-10-12T07:31:29.006Z,8.10
2018-10-12T07:33:57.285Z,7.15
2018-10-12T07:36:25.608Z,7.30
2018-10-12T07:38:54.482Z,8.48
2018-10-12T07:41:22.969Z,8.30
2018-10-12T07:43:51.543Z,9.28
2018-10-12T07:46:19.965Z,7.40
2018-10-12T07:48:48.716Z,7.75
2018-10-12T07:51:17.122Z,8.70
2018-10-12T07:53:45.410Z,8.10
2018-10-12T07:56:13.712Z,10.00
2018-10-12T07:58:42.724Z,10.67
2018-10-12T08:01:11.029Z,12.33
2018-10-12T08:03:39.540Z,11.70
2018-10-12T08:06:08.497Z,11.87
2018-10-12T08:08:37.074Z,11.60
2018-10-12T08:11:06.065Z,9.10
2018-10-12T08:13:34.472Z,9.50
2018-10-12T08:16:03.124Z,7.80
2018-10-12T08:18:32.054Z,8.07
2018-10-12T08:21:00.458Z,9.83
2018-10-12T08:23:28.801Z,9.00
2018-10-12T08:25:57.575Z,8.63
2018-10-12T08:28:25.860Z,9.37
2018-10-12T08:30:54.185Z,8.77
2018-10-12T08:33:22.559Z,9.80
2018-10-12T08:35:50.900Z,9.77
2018-10-12T08:38:19.319Z,10.57
2018-10-12T08:40:47.792Z,8.90
2018-10-12T08:43:16.092Z,8.10
2018-10-12T08:45:44.621Z,6.53
2018-10-12T08:48:13.153Z,6.27
2018-10-12T08:50:41.940Z,7.17
2018-10-12T08:53:10.625Z,6.70
2018-10-12T08:55:39.150Z,6.67
2018-10-12T08:58:07.822Z,8.17
2018-10-12T09:00:36.417Z,8.47
2018-10-12T09:03:04.981Z,9.40
2018-10-12T09:05:33.983Z,9.57
2018-10-12T09:08:02.337Z,10.60
2018-10-12T09:10:30.759Z,10.47
2018-10-12T09:12:59.600Z,10.23
2018-10-12T09:15:27.937Z,9.20
2018-10-12T09:17:56.403Z,6.70
2018-10-12T09:20:24.889Z,7.93
2018-10-12T09:22:53.354Z,7.50
2018-10-12T09:25:21.825Z,6.57
2018-10-12T09:27:50.426Z,7.13
2018-10-12T09:30:18.895Z,6.40
2018-10-12T09:32:47.428Z,6.67
2018-10-12T09:35:16.022Z,5.90
2018-10-12T09:37:45.677Z,6.40
2018-10-12T09:40:14.526Z,6.27
2018-10-12T09:42:43.220Z,11.03
2018-10-12T09:45:11.742Z,5.77
2018-10-12T09:47:40.346Z,6.40
2018-10-12T09:50:08.960Z,6.23
2018-10-12T09:52:37.440Z,5.97
2018-10-12T09:55:06.080Z,5.77
2018-10-12T09:57:35.937Z,5.00
2018-10-12T10:00:12.252Z,4.40
2018-10-12T10:02:46.634Z,5.10
2018-10-12T10:05:18.076Z,4.77
2018-10-12T10:07:47.309Z,5.00
2018-10-12T10:10:16.764Z,4.33
2018-10-12T10:12:45.640Z,5.20
2018-10-12T10:15:18.148Z,4.30
2018-10-12T10:17:46.980Z,4.17
2018-10-12T10:20:15.584Z,4.43
2018-10-12T10:22:45.425Z,4.37
2018-10-12T10:25:14.482Z,5.03
2018-10-12T10:27:43.520Z,4.10
2018-10-12T10:30:12.958Z,5.27
2018-10-12T10:32:41.958Z,4.90
2018-10-12T10:35:15.015Z,4.40
2018-10-12T10:37:43.954Z,4.03
2018-10-12T10:40:13.047Z,4.23
2018-10-12T10:42:42.730Z,5.00
2018-10-12T10:45:11.806Z,4.23
2018-10-12T10:47:40.834Z,4.20
2018-10-12T10:50:09.856Z,5.60
2018-10-12T10:52:38.599Z,5.30
2018-10-12T10:55:07.663Z,5.70
2018-10-12T10:57:36.199Z,6.30
2018-10-12T11:00:05.750Z,7.23
2018-10-12T11:02:34.054Z,7.20
2018-10-12T11:05:02.480Z,7.60
2018-10-12T11:07:32.915Z,6.63
2018-10-12T11:10:01.950Z,6.60
2018-10-12T11:12:32.693Z,7.27
2018-10-12T11:15:01.713Z,6.53
2018-10-12T11:17:31.762Z,6.57
2018-10-12T11:20:04.807Z,6.80
2018-10-12T11:22:34.684Z,6.20
2018-10-12T11:25:03.628Z,5.87
2018-10-12T11:27:33.635Z,5.20
2018-10-12T11:30:02.878Z,4.90
2018-10-12T11:32:31.925Z,5.17
2018-10-12T11:35:00.578Z,5.20
2018-10-12T11:37:29.315Z,5.07
2018-10-12T11:39:58.209Z,5.30
2018-10-12T11:42:43.545Z,4.93
2018-10-12T11:45:12.709Z,4.83
2018-10-12T11:47:41.585Z,6.93
2018-10-12T11:50:10.216Z,5.10
2018-10-12T11:52:39.339Z,5.40
2018-10-12T11:55:08.518Z,3.83
2018-10-12T11:57:37.446Z,4.40
2018-10-12T12:00:06.247Z,4.10
2018-10-12T12:02:34.594Z,4.23
2018-10-12T12:05:03.109Z,3.50
2018-10-12T12:07:31.538Z,4.03
2018-10-12T12:09:59.869Z,4.50
2018-10-12T12:12:28.228Z,3.70
2018-10-12T12:14:56.951Z,3.90
2018-10-12T12:17:25.382Z,3.83
2018-10-12T12:19:53.805Z,3.50
2018-10-12T12:22:22.521Z,3.80
2018-10-12T12:24:51.329Z,3.53
2018-10-12T12:27:19.682Z,3.80
2018-10-12T12:29:48.081Z,3.40
2018-10-12T12:32:16.491Z,3.20
2018-10-12T12:34:44.953Z,3.20
2018-10-12T12:37:13.886Z,3.07
2018-10-12T12:39:45.243Z,3.03
2018-10-12T12:42:13.903Z,2.90
2018-10-12T12:44:42.291Z,2.97
2018-10-12T12:47:10.829Z,2.40
2018-10-12T12:49:39.045Z,2.03
2018-10-12T12:52:07.531Z,2.20
2018-10-12T12:54:35.828Z,2.43
2018-10-12T12:57:04.214Z,2.30
2018-10-12T12:59:32.641Z,2.27
2018-10-12T13:02:00.956Z,2.40
2018-10-12T13:04:29.298Z,2.60
2018-10-12T13:06:58.221Z,2.67
2018-10-12T13:09:26.535Z,2.10
2018-10-12T13:11:55.633Z,2.20
2018-10-12T13:14:24.850Z,1.73
2018-10-12T13:16:53.257Z,2.37
2018-10-12T13:19:21.615Z,2.77
2018-10-12T13:21:49.905Z,2.90
2018-10-12T13:24:18.439Z,2.60
2018-10-12T13:26:46.669Z,2.90
2018-10-12T13:29:16.542Z,3.30
2018-10-12T13:31:44.743Z,2.60
2018-10-12T13:34:13.521Z,3.70
2018-10-12T13:36:42.045Z,2.57
2018-10-12T13:39:12.157Z,2.50
2018-10-12T13:41:40.511Z,3.77
2018-10-12T13:44:09.500Z,2.90
2018-10-12T13:46:38.013Z,3.47
2018-10-12T13:49:07.193Z,2.97
2018-10-12T13:51:36.386Z,3.00
2018-10-12T13:54:04.963Z,2.70
2018-10-12T13:56:33.475Z,2.90
2018-10-12T13:59:01.827Z,2.70
2018-10-12T14:01:30.234Z,2.90
2018-10-12T14:06:43.724Z,2.67
2018-10-12T14:09:12.233Z,3.47
2018-10-12T14:11:40.621Z,3.50
2018-10-12T14:14:09.023Z,3.53
2018-10-12T14:16:37.570Z,3.30
2018-10-12T14:19:06.554Z,3.60
2018-10-12T14:21:34.938Z,3.20
2018-10-12T14:24:03.566Z,3.20
2018-10-12T14:26:32.045Z,2.70
2018-10-12T14:29:00.572Z,3.30
2018-10-12T14:31:29.043Z,2.70
2018-10-12T14:33:58.584Z,3.10
2018-10-12T14:36:26.955Z,2.93
2018-10-12T14:38:55.470Z,2.73
2018-10-12T14:41:24.629Z,3.23
2018-10-12T14:43:53.198Z,2.63
2018-10-12T14:46:21.812Z,4.00
2018-10-12T14:48:50.465Z,2.90
2018-10-12T14:51:19.605Z,4.00
2018-10-12T14:53:48.163Z,3.60
2018-10-12T14:56:16.525Z,2.87
2018-10-12T14:58:44.916Z,3.20
2018-10-12T15:01:13.395Z,3.50
2018-10-12T15:03:41.920Z,3.50
2018-10-12T15:06:10.309Z,3.00
2018-10-12T15:08:38.878Z,3.63
2018-10-12T15:11:07.463Z,2.97
2018-10-12T15:13:35.925Z,2.80
2018-10-12T15:16:04.924Z,4.17
2018-10-12T15:18:33.372Z,3.30
2018-10-12T15:21:01.956Z,3.30
2018-10-12T15:23:30.379Z,2.87
2018-10-12T15:25:58.817Z,3.50
2018-10-12T15:28:27.408Z,3.10
2018-10-12T15:30:55.774Z,3.53
2018-10-12T15:33:25.019Z,2.97
2018-10-12T15:35:53.671Z,3.87
2018-10-12T15:38:22.895Z,3.90
2018-10-12T15:40:51.493Z,3.80
2018-10-12T15:43:20.047Z,3.63
2018-10-12T15:45:48.701Z,3.90
2018-10-12T15:48:17.045Z,4.00
2018-10-12T15:50:45.794Z,3.50
2018-10-12T15:53:14.397Z,3.97
2018-10-12T15:55:43.069Z,4.00
2018-10-12T15:58:11.736Z,3.77
2018-10-12T16:00:40.231Z,4.53
2018-10-12T16:03:09.701Z,4.60
2018-10-12T16:05:38.187Z,4.47
2018-10-12T16:08:07.037Z,5.07
2018-10-12T16:10:35.714Z,4.97
2018-10-12T16:13:04.189Z,6.10
2018-10-12T16:15:33.628Z,3.50
2018-10-12T16:18:02.095Z,4.67
2018-10-12T16:20:34.170Z,4.83
2018-10-12T16:23:02.941Z,5.60
2018-10-12T16:25:59.050Z,5.70
2018-10-12T16:28:27.834Z,5.00
2018-10-12T16:30:56.552Z,5.07
2018-10-12T16:33:26.090Z,6.13
2018-10-12T16:35:55.924Z,10.10
2018-10-12T16:38:27.910Z,7.73
2018-10-12T16:40:56.838Z,7.27
2018-10-12T16:43:25.937Z,5.23
2018-10-12T16:45:55.297Z,7.53
2018-10-12T16:48:23.876Z,6.07
2018-10-12T16:50:52.506Z,8.17
2018-10-12T16:53:21.386Z,6.20
2018-10-12T16:55:50.055Z,5.30
2018-10-12T16:58:18.903Z,5.00
2018-10-12T17:00:47.621Z,4.60
2018-10-12T17:03:16.791Z,4.47
2018-10-12T17:05:56.116Z,4.70
2018-10-12T17:08:26.438Z,5.10
2018-10-12T17:10:55.523Z,4.73
2018-10-12T17:13:24.957Z,4.70
2018-10-12T17:15:55.909Z,4.70
2018-10-12T17:18:26.029Z,8.40
2018-10-12T17:20:54.894Z,4.93
2018-10-12T17:23:23.245Z,4.60
2018-10-12T17:25:51.734Z,4.80
2018-10-12T17:28:20.462Z,5.30
2018-10-12T17:30:51.968Z,5.20
2018-10-12T17:33:21.118Z,5.80
2018-10-12T17:35:50.990Z,5.10
2018-10-12T17:38:19.735Z,5.70
2018-10-12T17:40:49.773Z,6.67
2018-10-12T17:43:19.582Z,5.67
2018-10-12T17:45:53.622Z,5.23
2018-10-12T17:48:29.963Z,5.10
2018-10-12T17:51:01.822Z,4.60
2018-10-12T17:53:31.087Z,5.20
2018-10-12T17:55:59.801Z,4.30
2018-10-12T17:58:36.633Z,5.03
2018-10-12T18:01:05.902Z,6.20
2018-10-12T18:06:23.773Z,5.90
2018-10-12T18:08:52.214Z,5.60
2018-10-12T18:11:20.581Z,5.50
2018-10-12T18:13:49.728Z,8.00
2018-10-12T18:16:18.351Z,8.70
2018-10-12T18:18:47.905Z,8.30
2018-10-12T18:21:20.747Z,6.60
2018-10-12T18:23:49.186Z,5.23
2018-10-12T18:26:22.587Z,7.03
2018-10-12T18:28:51.556Z,6.13
2018-10-12T18:31:27.986Z,6.27
2018-10-12T18:34:03.346Z,7.00
2018-10-12T18:39:47.355Z,6.17
2018-10-12T18:42:16.546Z,7.23
2018-10-12T18:44:45.312Z,6.40
2018-10-12T18:47:19.110Z,6.60
2018-10-12T18:49:48.174Z,6.13
2018-10-12T18:52:16.927Z,6.27
2018-10-12T18:54:45.589Z,7.00
2018-10-12T18:57:14.230Z,7.57
2018-10-12T18:59:43.462Z,6.77
2018-10-12T19:02:24.651Z,7.30
2018-10-12T19:04:54.292Z,6.67
2018-10-12T19:07:23.399Z,7.77
2018-10-12T19:09:51.929Z,7.40
2018-10-12T19:12:20.578Z,6.20
2018-10-12T19:14:49.081Z,6.70
2018-10-12T19:17:17.641Z,6.47
2018-10-12T19:19:46.080Z,7.07
2018-10-12T19:22:14.827Z,6.27
2018-10-12T19:24:43.241Z,6.50
2018-10-12T19:27:11.644Z,6.63
2018-10-12T19:29:40.536Z,6.53
2018-10-12T19:32:10.000Z,7.07
2018-10-12T19:34:38.650Z,7.60
2018-10-12T19:37:08.473Z,6.97
2018-10-12T19:39:37.318Z,7.43
2018-10-12T19:42:06.067Z,6.93
2018-10-12T19:44:35.002Z,6.57
2018-10-12T19:47:07.698Z,6.63
2018-10-12T19:49:38.299Z,7.10
2018-10-12T19:52:07.291Z,8.87
2018-10-12T19:54:38.726Z,7.43
2018-10-12T19:57:07.136Z,7.00
2018-10-12T19:59:36.740Z,7.50
2018-10-12T20:02:07.848Z,7.73
2018-10-12T20:04:52.612Z,8.40
2018-10-12T20:07:21.338Z,7.53
2018-10-12T20:09:50.222Z,7.30
2018-10-12T20:12:19.855Z,7.93
2018-10-12T20:14:50.716Z,7.60
2018-10-12T20:17:20.268Z,8.40
2018-10-12T20:19:49.157Z,7.80
2018-10-12T20:22:18.158Z,8.23
2018-10-12T20:24:47.176Z,7.40
2018-10-12T20:30:21.521Z,7.80
2018-10-12T20:32:50.617Z,7.50
2018-10-12T20:35:19.858Z,8.17
2018-10-12T20:37:48.297Z,7.10
2018-10-12T20:40:17.599Z,7.97
2018-10-12T20:42:47.098Z,8.87
2018-10-12T20:45:20.029Z,7.43
2018-10-12T20:47:51.103Z,7.43
2018-10-12T20:50:19.881Z,8.00
2018-10-12T20:52:58.117Z,7.60
2018-10-12T20:55:29.194Z,7.07
2018-10-12T20:58:00.088Z,6.83
2018-10-12T21:00:28.790Z,7.23
2018-10-12T21:02:57.426Z,7.60
2018-10-12T21:05:26.954Z,7.23
2018-10-12T21:07:55.760Z,6.50
2018-10-12T21:10:24.337Z,6.50
2018-10-12T21:12:53.296Z,6.77
2018-10-12T21:15:22.097Z,6.23
2018-10-12T21:17:50.936Z,6.60
2018-10-12T21:20:19.830Z,6.53
2018-10-12T21:22:56.637Z,6.90
2018-10-12T21:25:25.605Z,6.60
2018-10-12T21:27:54.278Z,7.50
2018-10-12T21:30:22.931Z,8.40
2018-10-12T21:32:51.427Z,7.00
2018-10-12T21:35:21.284Z,6.40
2018-10-12T21:37:54.785Z,7.90
2018-10-12T21:40:44.109Z,6.00
2018-10-12T21:43:12.931Z,6.75
2018-10-12T21:45:41.887Z,5.40
2018-10-12T21:48:12.141Z,6.40
2018-10-12T21:50:47.812Z,6.77
2018-10-12T21:53:29.211Z,8.20
2018-10-12T21:56:08.671Z,17.80
2018-10-12T22:12:14.342Z,7.72
2018-10-12T22:14:43.031Z,10.30
2018-10-12T22:17:11.532Z,7.00
2018-10-12T22:19:39.973Z,6.77
2018-10-12T22:22:10.487Z,5.60
2018-10-12T22:24:38.996Z,8.25
2018-10-12T22:27:30.140Z,7.25
2018-10-12T22:29:59.011Z,5.97
2018-10-12T22:32:27.437Z,6.72
2018-10-12T22:34:55.868Z,6.58
2018-10-12T22:37:24.134Z,7.33
2018-10-12T22:39:52.565Z,6.25
2018-10-12T22:42:21.289Z,6.12
2018-10-12T22:44:49.607Z,5.80
2018-10-12T22:47:17.961Z,6.50
2018-10-12T22:49:47.014Z,6.12
2018-10-12T22:52:15.755Z,6.30
2018-10-12T22:54:44.032Z,5.85
2018-10-12T22:57:12.610Z,5.90
2018-10-12T22:59:41.613Z,5.90
2018-10-12T23:02:09.897Z,6.72
2018-10-12T23:04:38.214Z,5.97
2018-10-12T23:07:07.452Z,5.35
2018-10-12T23:09:35.983Z,5.85
2018-10-12T23:12:04.305Z,5.50
2018-10-12T23:14:32.641Z,5.60
2018-10-12T23:17:00.905Z,5.47
2018-10-12T23:19:29.155Z,5.50
2018-10-12T23:21:57.450Z,6.47
2018-10-12T23:24:25.985Z,5.17
2018-10-12T23:26:54.283Z,5.47
2018-10-12T23:29:22.522Z,6.08
2018-10-12T23:31:50.839Z,6.17
2018-10-12T23:34:19.150Z,5.55
2018-10-12T23:36:47.608Z,6.37
2018-10-12T23:39:16.272Z,4.95
2018-10-12T23:41:44.583Z,5.70
2018-10-12T23:44:12.905Z,5.55
2018-10-12T23:46:41.205Z,6.70
2018-10-12T23:49:09.524Z,5.55
2018-10-12T23:51:37.879Z,5.60
2018-10-12T23:54:06.294Z,5.80
2018-10-12T23:56:34.562Z,5.70
2018-10-12T23:59:02.790Z,6.55
